sensor_id;sensor_type;location;lat;lon;timestamp;temperature;humidity
3705;DHT22;1868;48.918;9.438;2022-08-18T00:01:12;20.20;97.40
3705;DHT22;1868;48.918;9.438;2022-08-18T00:03:44;20.20;97.40
3705;DHT22;1868;48.918;9.438;2022-08-18T00:06:24;20.20;97.40
3705;DHT22;1868;48.918;9.438;2022-08-18T00:08:55;20.10;97.40
3705;DHT22;1868;48.918;9.438;2022-08-18T00:11:24;20.00;97.40
3705;DHT22;1868;48.918;9.438;2022-08-18T00:13:52;20.00;97.40
3705;DHT22;1868;48.918;9.438;2022-08-18T00:16:21;20.00;97.40
3705;DHT22;1868;48.918;9.438;2022-08-18T00:18:51;19.90;97.40
3705;DHT22;1868;48.918;9.438;2022-08-18T00:21:19;19.90;97.40
3705;DHT22;1868;48.918;9.438;2022-08-18T00:23:47;19.90;97.40
3705;DHT22;1868;48.918;9.438;2022-08-18T00:26:16;19.80;97.40
3705;DHT22;1868;48.918;9.438;2022-08-18T00:28:44;19.80;97.40
3705;DHT22;1868;48.918;9.438;2022-08-18T00:31:12;19.70;97.40
3705;DHT22;1868;48.918;9.438;2022-08-18T00:33:41;19.60;97.40
3705;DHT22;1868;48.918;9.438;2022-08-18T00:36:12;19.60;97.40
3705;DHT22;1868;48.918;9.438;2022-08-18T00:38:40;19.50;97.40
3705;DHT22;1868;48.918;9.438;2022-08-18T00:41:08;19.60;97.40
3705;DHT22;1868;48.918;9.438;2022-08-18T00:43:44;19.60;97.40
3705;DHT22;1868;48.918;9.438;2022-08-18T00:46:17;19.60;97.40
3705;DHT22;1868;48.918;9.438;2022-08-18T00:48:47;19.60;97.40
3705;DHT22;1868;48.918;9.438;2022-08-18T00:51:23;19.60;97.40
3705;DHT22;1868;48.918;9.438;2022-08-18T00:53:58;19.60;97.40
3705;DHT22;1868;48.918;9.438;2022-08-18T00:56:34;19.60;97.40
3705;DHT22;1868;48.918;9.438;2022-08-18T00:59:08;19.60;97.40
3705;DHT22;1868;48.918;9.438;2022-08-18T01:01:40;19.60;97.40
3705;DHT22;1868;48.918;9.438;2022-08-18T01:04:13;19.60;97.40
3705;DHT22;1868;48.918;9.438;2022-08-18T01:06:47;19.60;97.40
3705;DHT22;1868;48.918;9.438;2022-08-18T01:09:19;19.60;97.40
3705;DHT22;1868;48.918;9.438;2022-08-18T01:11:48;19.60;97.40
3705;DHT22;1868;48.918;9.438;2022-08-18T01:14:18;19.60;97.40
3705;DHT22;1868;48.918;9.438;2022-08-18T01:16:47;19.60;97.40
3705;DHT22;1868;48.918;9.438;2022-08-18T01:19:35;19.60;97.40
3705;DHT22;1868;48.918;9.438;2022-08-18T01:22:28;19.60;97.40
3705;DHT22;1868;48.918;9.438;2022-08-18T01:25:02;19.60;97.40
3705;DHT22;1868;48.918;9.438;2022-08-18T01:27:52;19.60;97.40
3705;DHT22;1868;48.918;9.438;2022-08-18T01:30:26;19.60;97.40
3705;DHT22;1868;48.918;9.438;2022-08-18T01:32:56;19.50;97.40
3705;DHT22;1868;48.918;9.438;2022-08-18T01:35:26;19.50;97.40
3705;DHT22;1868;48.918;9.438;2022-08-18T01:38:03;19.50;97.40
3705;DHT22;1868;48.918;9.438;2022-08-18T01:40:33;19.50;97.40
3705;DHT22;1868;48.918;9.438;2022-08-18T01:43:22;19.50;97.40
3705;DHT22;1868;48.918;9.438;2022-08-18T01:45:50;19.60;97.40
3705;DHT22;1868;48.918;9.438;2022-08-18T01:48:18;19.60;97.40
3705;DHT22;1868;48.918;9.438;2022-08-18T01:50:47;19.60;97.40
3705;DHT22;1868;48.918;9.438;2022-08-18T01:53:15;19.60;97.40
3705;DHT22;1868;48.918;9.438;2022-08-18T01:55:46;19.60;97.40
3705;DHT22;1868;48.918;9.438;2022-08-18T01:58:14;19.60;97.40
3705;DHT22;1868;48.918;9.438;2022-08-18T02:00:43;19.60;97.40
3705;DHT22;1868;48.918;9.438;2022-08-18T02:03:13;19.60;97.40
3705;DHT22;1868;48.918;9.438;2022-08-18T02:05:44;19.60;97.40
3705;DHT22;1868;48.918;9.438;2022-08-18T02:08:15;19.60;97.40
3705;DHT22;1868;48.918;9.438;2022-08-18T02:10:45;19.50;97.40
3705;DHT22;1868;48.918;9.438;2022-08-18T02:13:14;19.50;97.40
3705;DHT22;1868;48.918;9.438;2022-08-18T02:15:42;19.50;97.40
3705;DHT22;1868;48.918;9.438;2022-08-18T02:18:13;19.50;97.40
3705;DHT22;1868;48.918;9.438;2022-08-18T02:21:07;19.40;97.40
3705;DHT22;1868;48.918;9.438;2022-08-18T02:23:37;19.40;97.40
3705;DHT22;1868;48.918;9.438;2022-08-18T02:26:14;19.40;97.40
3705;DHT22;1868;48.918;9.438;2022-08-18T02:28:44;19.30;97.40
3705;DHT22;1868;48.918;9.438;2022-08-18T02:31:14;19.30;97.40
3705;DHT22;1868;48.918;9.438;2022-08-18T02:33:45;19.30;97.40
3705;DHT22;1868;48.918;9.438;2022-08-18T02:36:18;19.30;97.40
3705;DHT22;1868;48.918;9.438;2022-08-18T02:38:51;19.30;97.40
3705;DHT22;1868;48.918;9.438;2022-08-18T02:41:27;19.30;97.40
3705;DHT22;1868;48.918;9.438;2022-08-18T02:43:57;19.20;97.40
3705;DHT22;1868;48.918;9.438;2022-08-18T02:46:26;19.20;97.40
3705;DHT22;1868;48.918;9.438;2022-08-18T02:48:57;19.20;97.40
3705;DHT22;1868;48.918;9.438;2022-08-18T02:51:26;19.20;97.40
3705;DHT22;1868;48.918;9.438;2022-08-18T02:53:54;19.20;97.40
3705;DHT22;1868;48.918;9.438;2022-08-18T02:56:28;19.20;97.40
3705;DHT22;1868;48.918;9.438;2022-08-18T02:59:09;19.20;97.40
3705;DHT22;1868;48.918;9.438;2022-08-18T03:01:41;19.20;97.40
3705;DHT22;1868;48.918;9.438;2022-08-18T03:04:21;19.20;97.40
3705;DHT22;1868;48.918;9.438;2022-08-18T03:06:57;19.20;97.40
3705;DHT22;1868;48.918;9.438;2022-08-18T03:09:27;19.20;97.40
3705;DHT22;1868;48.918;9.438;2022-08-18T03:11:58;19.30;97.40
3705;DHT22;1868;48.918;9.438;2022-08-18T03:14:27;19.30;97.40
3705;DHT22;1868;48.918;9.438;2022-08-18T03:16:56;19.30;97.40
3705;DHT22;1868;48.918;9.438;2022-08-18T03:19:25;19.30;97.40
3705;DHT22;1868;48.918;9.438;2022-08-18T03:21:56;19.30;97.40
3705;DHT22;1868;48.918;9.438;2022-08-18T03:24:30;19.30;97.40
3705;DHT22;1868;48.918;9.438;2022-08-18T03:27:03;19.20;97.40
3705;DHT22;1868;48.918;9.438;2022-08-18T03:29:34;19.20;97.40
3705;DHT22;1868;48.918;9.438;2022-08-18T03:32:05;19.20;97.40
3705;DHT22;1868;48.918;9.438;2022-08-18T03:34:34;19.20;97.40
3705;DHT22;1868;48.918;9.438;2022-08-18T03:37:03;19.20;97.40
3705;DHT22;1868;48.918;9.438;2022-08-18T03:39:31;19.20;97.40
3705;DHT22;1868;48.918;9.438;2022-08-18T03:42:00;19.20;97.40
3705;DHT22;1868;48.918;9.438;2022-08-18T03:44:32;19.20;97.40
3705;DHT22;1868;48.918;9.438;2022-08-18T03:47:03;19.20;97.40
3705;DHT22;1868;48.918;9.438;2022-08-18T03:49:35;19.20;97.40
3705;DHT22;1868;48.918;9.438;2022-08-18T03:52:07;19.20;97.40
3705;DHT22;1868;48.918;9.438;2022-08-18T03:54:36;19.20;97.40
3705;DHT22;1868;48.918;9.438;2022-08-18T03:57:08;19.20;97.40
3705;DHT22;1868;48.918;9.438;2022-08-18T03:59:38;19.20;97.40
3705;DHT22;1868;48.918;9.438;2022-08-18T04:02:10;19.20;97.40
3705;DHT22;1868;48.918;9.438;2022-08-18T04:04:38;19.20;97.40
3705;DHT22;1868;48.918;9.438;2022-08-18T04:07:10;19.20;97.40
3705;DHT22;1868;48.918;9.438;2022-08-18T04:09:42;19.20;97.40
3705;DHT22;1868;48.918;9.438;2022-08-18T04:12:14;19.20;97.40
3705;DHT22;1868;48.918;9.438;2022-08-18T04:14:45;19.20;97.40
3705;DHT22;1868;48.918;9.438;2022-08-18T04:17:16;19.20;97.40
3705;DHT22;1868;48.918;9.438;2022-08-18T04:19:50;19.10;97.40
3705;DHT22;1868;48.918;9.438;2022-08-18T04:22:20;19.10;97.40
3705;DHT22;1868;48.918;9.438;2022-08-18T04:24:48;19.10;97.40
3705;DHT22;1868;48.918;9.438;2022-08-18T04:27:19;19.10;97.40
3705;DHT22;1868;48.918;9.438;2022-08-18T04:29:48;19.10;97.40
3705;DHT22;1868;48.918;9.438;2022-08-18T04:32:17;19.10;97.40
3705;DHT22;1868;48.918;9.438;2022-08-18T04:34:45;19.20;97.40
3705;DHT22;1868;48.918;9.438;2022-08-18T04:37:14;19.10;97.40
3705;DHT22;1868;48.918;9.438;2022-08-18T04:39:43;19.10;97.40
3705;DHT22;1868;48.918;9.438;2022-08-18T04:42:12;19.10;97.40
3705;DHT22;1868;48.918;9.438;2022-08-18T04:44:42;19.10;97.40
3705;DHT22;1868;48.918;9.438;2022-08-18T04:47:10;19.10;97.40
3705;DHT22;1868;48.918;9.438;2022-08-18T04:49:39;19.20;97.40
3705;DHT22;1868;48.918;9.438;2022-08-18T04:52:09;19.20;97.40
3705;DHT22;1868;48.918;9.438;2022-08-18T04:55:07;19.20;97.40
3705;DHT22;1868;48.918;9.438;2022-08-18T04:57:36;19.20;97.40
3705;DHT22;1868;48.918;9.438;2022-08-18T05:00:07;19.20;97.40
3705;DHT22;1868;48.918;9.438;2022-08-18T05:02:37;19.20;97.40
3705;DHT22;1868;48.918;9.438;2022-08-18T05:05:07;19.30;97.40
3705;DHT22;1868;48.918;9.438;2022-08-18T05:07:35;19.30;97.40
3705;DHT22;1868;48.918;9.438;2022-08-18T05:10:04;19.30;97.40
3705;DHT22;1868;48.918;9.438;2022-08-18T05:12:32;19.30;97.40
3705;DHT22;1868;48.918;9.438;2022-08-18T05:15:02;19.40;97.40
3705;DHT22;1868;48.918;9.438;2022-08-18T05:17:32;19.50;97.40
3705;DHT22;1868;48.918;9.438;2022-08-18T05:20:07;19.50;97.40
3705;DHT22;1868;48.918;9.438;2022-08-18T05:22:37;19.60;97.40
3705;DHT22;1868;48.918;9.438;2022-08-18T05:25:07;19.60;97.40
3705;DHT22;1868;48.918;9.438;2022-08-18T05:27:39;19.60;97.40
3705;DHT22;1868;48.918;9.438;2022-08-18T05:30:10;19.70;97.40
3705;DHT22;1868;48.918;9.438;2022-08-18T05:32:43;19.70;97.40
3705;DHT22;1868;48.918;9.438;2022-08-18T05:35:20;19.70;97.40
3705;DHT22;1868;48.918;9.438;2022-08-18T05:38:06;19.70;97.40
3705;DHT22;1868;48.918;9.438;2022-08-18T05:40:42;19.70;97.40
3705;DHT22;1868;48.918;9.438;2022-08-18T05:43:12;19.80;97.40
3705;DHT22;1868;48.918;9.438;2022-08-18T05:45:42;19.80;97.40
3705;DHT22;1868;48.918;9.438;2022-08-18T05:48:18;19.90;97.40
3705;DHT22;1868;48.918;9.438;2022-08-18T05:50:47;20.00;97.40
3705;DHT22;1868;48.918;9.438;2022-08-18T05:53:16;20.00;97.40
3705;DHT22;1868;48.918;9.438;2022-08-18T05:55:53;20.10;97.40
3705;DHT22;1868;48.918;9.438;2022-08-18T05:58:48;20.20;97.40
3705;DHT22;1868;48.918;9.438;2022-08-18T06:01:21;20.30;97.40
3705;DHT22;1868;48.918;9.438;2022-08-18T06:03:54;20.50;97.40
3705;DHT22;1868;48.918;9.438;2022-08-18T06:06:27;20.60;97.40
3705;DHT22;1868;48.918;9.438;2022-08-18T06:09:01;20.70;97.40
3705;DHT22;1868;48.918;9.438;2022-08-18T06:11:32;20.80;97.40
3705;DHT22;1868;48.918;9.438;2022-08-18T06:14:00;20.90;97.40
3705;DHT22;1868;48.918;9.438;2022-08-18T06:16:41;20.90;97.40
3705;DHT22;1868;48.918;9.438;2022-08-18T06:19:31;21.00;97.40
3705;DHT22;1868;48.918;9.438;2022-08-18T06:22:12;21.10;97.40
3705;DHT22;1868;48.918;9.438;2022-08-18T06:24:57;21.10;97.40
3705;DHT22;1868;48.918;9.438;2022-08-18T06:27:37;21.20;97.40
3705;DHT22;1868;48.918;9.438;2022-08-18T06:30:14;21.20;97.40
3705;DHT22;1868;48.918;9.438;2022-08-18T06:33:00;21.20;97.40
3705;DHT22;1868;48.918;9.438;2022-08-18T06:35:35;21.30;97.40
3705;DHT22;1868;48.918;9.438;2022-08-18T06:38:17;21.30;97.40
3705;DHT22;1868;48.918;9.438;2022-08-18T06:41:15;21.30;97.40
3705;DHT22;1868;48.918;9.438;2022-08-18T06:44:13;21.30;97.40
3705;DHT22;1868;48.918;9.438;2022-08-18T06:46:46;21.30;97.40
3705;DHT22;1868;48.918;9.438;2022-08-18T06:49:28;21.30;97.40
3705;DHT22;1868;48.918;9.438;2022-08-18T06:52:22;21.50;97.40
3705;DHT22;1868;48.918;9.438;2022-08-18T06:54:54;21.50;97.40
3705;DHT22;1868;48.918;9.438;2022-08-18T06:57:27;21.70;97.40
3705;DHT22;1868;48.918;9.438;2022-08-18T07:00:04;21.80;97.40
3705;DHT22;1868;48.918;9.438;2022-08-18T07:02:49;21.90;97.40
3705;DHT22;1868;48.918;9.438;2022-08-18T07:05:25;22.00;97.40
3705;DHT22;1868;48.918;9.438;2022-08-18T07:08:06;22.00;97.40
3705;DHT22;1868;48.918;9.438;2022-08-18T07:10:39;22.10;97.40
3705;DHT22;1868;48.918;9.438;2022-08-18T07:13:21;22.20;97.40
3705;DHT22;1868;48.918;9.438;2022-08-18T07:15:53;22.30;97.40
3705;DHT22;1868;48.918;9.438;2022-08-18T07:18:25;22.30;97.40
3705;DHT22;1868;48.918;9.438;2022-08-18T07:20:57;22.40;97.40
3705;DHT22;1868;48.918;9.438;2022-08-18T07:23:31;22.50;97.40
3705;DHT22;1868;48.918;9.438;2022-08-18T07:26:07;22.50;97.40
3705;DHT22;1868;48.918;9.438;2022-08-18T07:28:39;22.60;97.40
3705;DHT22;1868;48.918;9.438;2022-08-18T07:31:22;22.60;97.40
3705;DHT22;1868;48.918;9.438;2022-08-18T07:34:03;22.70;97.40
3705;DHT22;1868;48.918;9.438;2022-08-18T07:36:38;22.80;97.40
3705;DHT22;1868;48.918;9.438;2022-08-18T07:39:19;22.90;97.40
3705;DHT22;1868;48.918;9.438;2022-08-18T07:41:53;22.80;97.40
3705;DHT22;1868;48.918;9.438;2022-08-18T07:44:27;23.00;97.40
3705;DHT22;1868;48.918;9.438;2022-08-18T07:47:14;23.10;97.40
3705;DHT22;1868;48.918;9.438;2022-08-18T07:49:46;23.30;97.40
3705;DHT22;1868;48.918;9.438;2022-08-18T07:52:37;23.40;97.40
3705;DHT22;1868;48.918;9.438;2022-08-18T07:55:22;23.50;97.40
3705;DHT22;1868;48.918;9.438;2022-08-18T07:58:11;23.30;97.40
3705;DHT22;1868;48.918;9.438;2022-08-18T08:00:49;23.20;97.40
3705;DHT22;1868;48.918;9.438;2022-08-18T08:03:33;23.00;97.40
3705;DHT22;1868;48.918;9.438;2022-08-18T08:06:15;22.80;97.40
3705;DHT22;1868;48.918;9.438;2022-08-18T08:08:53;22.70;97.40
3705;DHT22;1868;48.918;9.438;2022-08-18T08:11:40;22.60;97.40
3705;DHT22;1868;48.918;9.438;2022-08-18T08:14:31;22.50;97.40
3705;DHT22;1868;48.918;9.438;2022-08-18T08:17:10;22.40;97.40
3705;DHT22;1868;48.918;9.438;2022-08-18T08:19:56;22.20;97.40
3705;DHT22;1868;48.918;9.438;2022-08-18T08:22:34;22.20;97.40
3705;DHT22;1868;48.918;9.438;2022-08-18T08:25:10;22.20;97.40
3705;DHT22;1868;48.918;9.438;2022-08-18T08:28:15;22.10;97.40
3705;DHT22;1868;48.918;9.438;2022-08-18T08:30:54;22.10;97.40
3705;DHT22;1868;48.918;9.438;2022-08-18T08:33:52;22.00;97.40
3705;DHT22;1868;48.918;9.438;2022-08-18T08:36:35;22.00;97.40
3705;DHT22;1868;48.918;9.438;2022-08-18T08:39:11;21.90;97.40
3705;DHT22;1868;48.918;9.438;2022-08-18T08:41:48;21.90;97.40
3705;DHT22;1868;48.918;9.438;2022-08-18T08:44:29;21.90;97.40
3705;DHT22;1868;48.918;9.438;2022-08-18T08:47:03;21.90;97.40
3705;DHT22;1868;48.918;9.438;2022-08-18T08:49:41;21.90;97.40
3705;DHT22;1868;48.918;9.438;2022-08-18T08:52:25;22.00;97.40
3705;DHT22;1868;48.918;9.438;2022-08-18T08:54:59;22.00;97.40
3705;DHT22;1868;48.918;9.438;2022-08-18T08:57:34;22.10;97.40
3705;DHT22;1868;48.918;9.438;2022-08-18T09:00:09;22.10;97.40
3705;DHT22;1868;48.918;9.438;2022-08-18T09:06:05;22.20;97.40
3705;DHT22;1868;48.918;9.438;2022-08-18T09:09:06;22.30;97.40
3705;DHT22;1868;48.918;9.438;2022-08-18T09:12:11;22.30;97.40
3705;DHT22;1868;48.918;9.438;2022-08-18T09:18:32;22.60;97.40
3705;DHT22;1868;48.918;9.438;2022-08-18T09:21:18;22.80;97.40
3705;DHT22;1868;48.918;9.438;2022-08-18T09:24:03;22.90;97.40
3705;DHT22;1868;48.918;9.438;2022-08-18T09:26:48;23.10;97.40
3705;DHT22;1868;48.918;9.438;2022-08-18T09:29:25;23.60;97.40
3705;DHT22;1868;48.918;9.438;2022-08-18T09:35:26;24.20;97.40
3705;DHT22;1868;48.918;9.438;2022-08-18T09:38:07;24.80;97.40
3705;DHT22;1868;48.918;9.438;2022-08-18T09:40:58;25.80;96.10
3705;DHT22;1868;48.918;9.438;2022-08-18T09:43:57;26.40;95.00
3705;DHT22;1868;48.918;9.438;2022-08-18T09:46:58;26.90;93.10
3705;DHT22;1868;48.918;9.438;2022-08-18T09:52:56;27.20;90.10
3705;DHT22;1868;48.918;9.438;2022-08-18T09:55:51;28.10;89.90
3705;DHT22;1868;48.918;9.438;2022-08-18T09:58:55;29.30;83.60
3705;DHT22;1868;48.918;9.438;2022-08-18T10:01:35;30.00;76.90
3705;DHT22;1868;48.918;9.438;2022-08-18T10:04:30;30.30;78.20
3705;DHT22;1868;48.918;9.438;2022-08-18T10:10:20;31.30;70.20
3705;DHT22;1868;48.918;9.438;2022-08-18T10:13:15;32.20;71.50
3705;DHT22;1868;48.918;9.438;2022-08-18T10:16:05;33.00;64.80
3705;DHT22;1868;48.918;9.438;2022-08-18T10:18:59;33.50;62.30
3705;DHT22;1868;48.918;9.438;2022-08-18T10:22:02;34.10;61.20
3705;DHT22;1868;48.918;9.438;2022-08-18T10:24:35;34.70;58.30
3705;DHT22;1868;48.918;9.438;2022-08-18T10:27:36;35.00;55.40
3705;DHT22;1868;48.918;9.438;2022-08-18T10:30:46;35.60;55.20
3705;DHT22;1868;48.918;9.438;2022-08-18T10:34:01;35.90;50.80
3705;DHT22;1868;48.918;9.438;2022-08-18T10:36:47;36.60;50.20
3705;DHT22;1868;48.918;9.438;2022-08-18T10:39:19;37.00;49.10
3705;DHT22;1868;48.918;9.438;2022-08-18T10:41:57;37.50;45.50
3705;DHT22;1868;48.918;9.438;2022-08-18T10:44:36;37.10;46.40
3705;DHT22;1868;48.918;9.438;2022-08-18T10:47:08;36.60;50.00
3705;DHT22;1868;48.918;9.438;2022-08-18T10:50:03;35.90;52.30
3705;DHT22;1868;48.918;9.438;2022-08-18T10:52:58;35.60;51.10
3705;DHT22;1868;48.918;9.438;2022-08-18T10:55:57;35.50;48.40
3705;DHT22;1868;48.918;9.438;2022-08-18T10:58:51;35.60;51.00
3705;DHT22;1868;48.918;9.438;2022-08-18T11:02:00;36.30;49.40
3705;DHT22;1868;48.918;9.438;2022-08-18T11:04:41;37.10;46.70
3705;DHT22;1868;48.918;9.438;2022-08-18T11:07:13;37.70;46.50
3705;DHT22;1868;48.918;9.438;2022-08-18T11:09:46;37.90;45.30
3705;DHT22;1868;48.918;9.438;2022-08-18T11:12:52;37.80;45.30
3705;DHT22;1868;48.918;9.438;2022-08-18T11:15:55;37.90;42.70
3705;DHT22;1868;48.918;9.438;2022-08-18T11:18:35;37.50;45.20
3705;DHT22;1868;48.918;9.438;2022-08-18T11:21:32;37.50;44.40
3705;DHT22;1868;48.918;9.438;2022-08-18T11:24:12;37.50;45.30
3705;DHT22;1868;48.918;9.438;2022-08-18T11:26:45;37.80;44.90
3705;DHT22;1868;48.918;9.438;2022-08-18T11:29:26;37.20;43.60
3705;DHT22;1868;48.918;9.438;2022-08-18T11:32:02;36.70;44.90
3705;DHT22;1868;48.918;9.438;2022-08-18T11:34:42;36.80;44.00
3705;DHT22;1868;48.918;9.438;2022-08-18T11:37:23;37.30;45.20
3705;DHT22;1868;48.918;9.438;2022-08-18T11:40:36;37.60;42.00
3705;DHT22;1868;48.918;9.438;2022-08-18T11:43:27;37.90;42.10
3705;DHT22;1868;48.918;9.438;2022-08-18T11:46:15;37.80;42.10
3705;DHT22;1868;48.918;9.438;2022-08-18T11:48:58;36.80;43.00
3705;DHT22;1868;48.918;9.438;2022-08-18T11:51:32;36.70;44.30
3705;DHT22;1868;48.918;9.438;2022-08-18T11:54:18;35.90;44.00
3705;DHT22;1868;48.918;9.438;2022-08-18T11:56:50;34.90;47.30
3705;DHT22;1868;48.918;9.438;2022-08-18T11:59:32;35.00;49.30
3705;DHT22;1868;48.918;9.438;2022-08-18T12:02:23;35.40;47.30
3705;DHT22;1868;48.918;9.438;2022-08-18T12:04:56;35.80;46.50
3705;DHT22;1868;48.918;9.438;2022-08-18T12:07:40;35.80;46.20
3705;DHT22;1868;48.918;9.438;2022-08-18T12:10:29;36.00;45.60
3705;DHT22;1868;48.918;9.438;2022-08-18T12:12:58;35.80;45.50
3705;DHT22;1868;48.918;9.438;2022-08-18T12:15:29;35.20;46.10
3705;DHT22;1868;48.918;9.438;2022-08-18T12:18:13;34.90;47.80
3705;DHT22;1868;48.918;9.438;2022-08-18T12:20:54;35.10;47.30
3705;DHT22;1868;48.918;9.438;2022-08-18T12:23:24;35.30;45.30
3705;DHT22;1868;48.918;9.438;2022-08-18T12:26:04;34.50;46.80
3705;DHT22;1868;48.918;9.438;2022-08-18T12:28:53;34.20;47.90
3705;DHT22;1868;48.918;9.438;2022-08-18T12:31:27;33.80;50.50
3705;DHT22;1868;48.918;9.438;2022-08-18T12:34:14;33.40;50.30
3705;DHT22;1868;48.918;9.438;2022-08-18T12:36:51;32.80;51.90
3705;DHT22;1868;48.918;9.438;2022-08-18T12:39:22;32.40;52.90
3705;DHT22;1868;48.918;9.438;2022-08-18T12:41:51;32.20;53.20
3705;DHT22;1868;48.918;9.438;2022-08-18T12:44:19;32.70;52.00
3705;DHT22;1868;48.918;9.438;2022-08-18T12:46:48;33.50;50.30
3705;DHT22;1868;48.918;9.438;2022-08-18T12:49:19;34.00;48.70
3705;DHT22;1868;48.918;9.438;2022-08-18T12:51:50;34.60;47.60
3705;DHT22;1868;48.918;9.438;2022-08-18T12:54:22;35.20;46.50
3705;DHT22;1868;48.918;9.438;2022-08-18T12:56:53;35.50;44.70
3705;DHT22;1868;48.918;9.438;2022-08-18T12:59:23;35.30;45.80
3705;DHT22;1868;48.918;9.438;2022-08-18T13:01:58;34.80;46.20
3705;DHT22;1868;48.918;9.438;2022-08-18T13:04:27;34.20;47.90
3705;DHT22;1868;48.918;9.438;2022-08-18T13:06:58;34.70;45.80
3705;DHT22;1868;48.918;9.438;2022-08-18T13:09:35;34.60;47.50
3705;DHT22;1868;48.918;9.438;2022-08-18T13:12:19;34.90;45.80
3705;DHT22;1868;48.918;9.438;2022-08-18T13:14:49;34.80;46.70
3705;DHT22;1868;48.918;9.438;2022-08-18T13:17:21;35.20;45.60
3705;DHT22;1868;48.918;9.438;2022-08-18T13:20:00;35.60;44.60
3705;DHT22;1868;48.918;9.438;2022-08-18T13:22:31;36.00;44.00
3705;DHT22;1868;48.918;9.438;2022-08-18T13:25:03;36.20;42.10
3705;DHT22;1868;48.918;9.438;2022-08-18T13:27:33;36.50;41.10
3705;DHT22;1868;48.918;9.438;2022-08-18T13:30:07;36.80;40.00
3705;DHT22;1868;48.918;9.438;2022-08-18T13:32:57;36.80;39.70
3705;DHT22;1868;48.918;9.438;2022-08-18T13:35:46;36.50;40.60
3705;DHT22;1868;48.918;9.438;2022-08-18T13:38:21;36.90;38.50
3705;DHT22;1868;48.918;9.438;2022-08-18T13:40:57;36.80;41.10
3705;DHT22;1868;48.918;9.438;2022-08-18T13:43:31;36.30;41.10
3705;DHT22;1868;48.918;9.438;2022-08-18T13:46:01;35.10;41.70
3705;DHT22;1868;48.918;9.438;2022-08-18T13:48:31;34.30;44.10
3705;DHT22;1868;48.918;9.438;2022-08-18T13:51:00;33.80;46.20
3705;DHT22;1868;48.918;9.438;2022-08-18T13:53:31;34.10;46.40
3705;DHT22;1868;48.918;9.438;2022-08-18T13:56:01;34.30;45.30
3705;DHT22;1868;48.918;9.438;2022-08-18T13:58:31;34.30;45.30
3705;DHT22;1868;48.918;9.438;2022-08-18T14:01:05;34.30;44.70
3705;DHT22;1868;48.918;9.438;2022-08-18T14:03:54;34.50;46.20
3705;DHT22;1868;48.918;9.438;2022-08-18T14:06:23;34.60;44.40
3705;DHT22;1868;48.918;9.438;2022-08-18T14:08:57;34.70;44.00
3705;DHT22;1868;48.918;9.438;2022-08-18T14:12:23;35.00;43.80
3705;DHT22;1868;48.918;9.438;2022-08-18T14:14:59;34.80;44.10
3705;DHT22;1868;48.918;9.438;2022-08-18T14:17:28;34.70;44.00
3705;DHT22;1868;48.918;9.438;2022-08-18T14:19:58;34.60;44.40
3705;DHT22;1868;48.918;9.438;2022-08-18T14:22:54;34.30;45.00
3705;DHT22;1868;48.918;9.438;2022-08-18T14:25:50;34.30;45.50
3705;DHT22;1868;48.918;9.438;2022-08-18T14:28:41;33.90;46.20
3705;DHT22;1868;48.918;9.438;2022-08-18T14:31:18;33.70;46.80
3705;DHT22;1868;48.918;9.438;2022-08-18T14:33:49;33.50;47.50
3705;DHT22;1868;48.918;9.438;2022-08-18T14:37:00;33.50;47.00
3705;DHT22;1868;48.918;9.438;2022-08-18T14:39:35;33.70;46.40
3705;DHT22;1868;48.918;9.438;2022-08-18T14:42:06;33.80;46.70
3705;DHT22;1868;48.918;9.438;2022-08-18T14:44:39;33.90;47.60
3705;DHT22;1868;48.918;9.438;2022-08-18T14:47:12;34.20;46.70
3705;DHT22;1868;48.918;9.438;2022-08-18T14:49:50;34.50;45.00
3705;DHT22;1868;48.918;9.438;2022-08-18T14:52:22;34.60;45.30
3705;DHT22;1868;48.918;9.438;2022-08-18T14:54:53;34.80;44.00
3705;DHT22;1868;48.918;9.438;2022-08-18T14:57:22;34.70;43.20
3705;DHT22;1868;48.918;9.438;2022-08-18T14:59:53;34.30;43.60
3705;DHT22;1868;48.918;9.438;2022-08-18T15:02:23;33.90;45.20
3705;DHT22;1868;48.918;9.438;2022-08-18T15:04:52;33.40;45.30
3705;DHT22;1868;48.918;9.438;2022-08-18T15:07:23;32.90;45.50
3705;DHT22;1868;48.918;9.438;2022-08-18T15:09:52;32.60;46.50
3705;DHT22;1868;48.918;9.438;2022-08-18T15:12:42;32.10;47.90
3705;DHT22;1868;48.918;9.438;2022-08-18T15:15:13;31.70;48.80
3705;DHT22;1868;48.918;9.438;2022-08-18T15:17:44;31.40;50.50
3705;DHT22;1868;48.918;9.438;2022-08-18T15:20:19;31.10;51.10
3705;DHT22;1868;48.918;9.438;2022-08-18T15:22:59;30.80;52.80
3705;DHT22;1868;48.918;9.438;2022-08-18T15:25:54;30.50;53.70
3705;DHT22;1868;48.918;9.438;2022-08-18T15:28:25;30.30;54.60
3705;DHT22;1868;48.918;9.438;2022-08-18T15:30:55;30.10;55.70
3705;DHT22;1868;48.918;9.438;2022-08-18T15:33:43;30.00;55.40
3705;DHT22;1868;48.918;9.438;2022-08-18T15:36:17;29.80;56.90
3705;DHT22;1868;48.918;9.438;2022-08-18T15:38:55;29.70;57.70
3705;DHT22;1868;48.918;9.438;2022-08-18T15:41:29;29.60;58.60
3705;DHT22;1868;48.918;9.438;2022-08-18T15:44:01;29.40;57.80
3705;DHT22;1868;48.918;9.438;2022-08-18T15:46:33;29.30;58.00
3705;DHT22;1868;48.918;9.438;2022-08-18T15:49:03;29.20;58.30
3705;DHT22;1868;48.918;9.438;2022-08-18T15:51:39;29.10;58.60
3705;DHT22;1868;48.918;9.438;2022-08-18T15:54:11;29.00;59.90
3705;DHT22;1868;48.918;9.438;2022-08-18T15:56:40;28.90;60.30
3705;DHT22;1868;48.918;9.438;2022-08-18T15:59:09;28.80;60.70
3705;DHT22;1868;48.918;9.438;2022-08-18T16:01:39;28.80;61.20
3705;DHT22;1868;48.918;9.438;2022-08-18T16:04:20;28.70;61.60
3705;DHT22;1868;48.918;9.438;2022-08-18T16:06:49;28.70;61.60
3705;DHT22;1868;48.918;9.438;2022-08-18T16:09:18;28.60;61.60
3705;DHT22;1868;48.918;9.438;2022-08-18T16:11:46;28.60;62.90
3705;DHT22;1868;48.918;9.438;2022-08-18T16:14:14;28.60;63.10
3705;DHT22;1868;48.918;9.438;2022-08-18T16:16:44;28.60;62.90
3705;DHT22;1868;48.918;9.438;2022-08-18T16:19:12;28.50;62.90
3705;DHT22;1868;48.918;9.438;2022-08-18T16:21:43;28.50;63.50
3705;DHT22;1868;48.918;9.438;2022-08-18T16:24:12;28.50;62.90
3705;DHT22;1868;48.918;9.438;2022-08-18T16:26:44;28.40;62.50
3705;DHT22;1868;48.918;9.438;2022-08-18T16:29:12;28.30;62.30
3705;DHT22;1868;48.918;9.438;2022-08-18T16:31:40;28.20;62.50
3705;DHT22;1868;48.918;9.438;2022-08-18T16:34:10;28.10;63.80
3705;DHT22;1868;48.918;9.438;2022-08-18T16:36:38;28.10;64.00
3705;DHT22;1868;48.918;9.438;2022-08-18T16:39:06;28.00;64.40
3705;DHT22;1868;48.918;9.438;2022-08-18T16:41:35;27.90;65.00
3705;DHT22;1868;48.918;9.438;2022-08-18T16:44:03;27.90;65.00
3705;DHT22;1868;48.918;9.438;2022-08-18T16:46:37;27.80;65.50
3705;DHT22;1868;48.918;9.438;2022-08-18T16:49:11;27.70;65.50
3705;DHT22;1868;48.918;9.438;2022-08-18T16:51:58;27.70;65.30
3705;DHT22;1868;48.918;9.438;2022-08-18T17:00:14;27.60;66.30
3705;DHT22;1868;48.918;9.438;2022-08-18T17:03:04;27.50;66.30
3705;DHT22;1868;48.918;9.438;2022-08-18T17:05:59;27.50;65.90
3705;DHT22;1868;48.918;9.438;2022-08-18T17:08:29;27.40;66.60
3705;DHT22;1868;48.918;9.438;2022-08-18T17:11:00;27.30;67.20
3705;DHT22;1868;48.918;9.438;2022-08-18T17:13:30;27.30;67.20
3705;DHT22;1868;48.918;9.438;2022-08-18T17:16:02;27.20;67.20
3705;DHT22;1868;48.918;9.438;2022-08-18T17:18:32;27.20;67.70
3705;DHT22;1868;48.918;9.438;2022-08-18T17:21:03;27.10;67.40
3705;DHT22;1868;48.918;9.438;2022-08-18T17:23:34;27.10;67.40
3705;DHT22;1868;48.918;9.438;2022-08-18T17:26:07;27.00;67.40